Time;durP1;ratioP1;P1;durP2;ratioP2;P2;SDS_P1;SDS_P2;PMS_P1;PMS_P2;Temp;Humidity;BMP_temperature;BMP_pressure;BME280_temperature;BME280_humidity;BME280_pressure;Samples;Min_cycle;Max_cycle;Signal;HPM_P1;HPM_P2
2022/08/10 00:04:28;;;;;;;2.90;1.00;;;21.40;86.40;;;;;;6627022;88;20235;-77
2022/08/10 00:14:28;;;;;;;1.42;0.88;;;21.20;88.30;;;;;;6636858;88;20958;-77
2022/08/10 00:24:29;;;;;;;1.50;0.80;;;21.20;89.50;;;;;;6627505;88;20304;-78
2022/08/10 00:34:31;;;;;;;1.52;0.80;;;21.20;90.50;;;;;;6635805;88;20247;-78
2022/08/10 00:44:31;;;;;;;1.10;0.70;;;21.10;91.60;;;;;;6625024;88;20371;-77
2022/08/10 00:54:34;;;;;;;1.50;0.80;;;21.00;92.30;;;;;;6643118;88;20180;-77
2022/08/10 01:04:35;;;;;;;1.50;0.90;;;21.00;93.60;;;;;;6631798;88;20282;-75
2022/08/10 01:14:50;;;;;;;2.00;1.10;;;20.90;94.60;;;;;;6637391;88;20325;-77
2022/08/10 01:25:16;;;;;;;1.40;0.80;;;20.80;95.90;;;;;;6633089;88;20252;-76
2022/08/10 01:35:38;;;;;;;1.45;0.80;;;20.70;97.10;;;;;;6631423;88;20186;-76
2022/08/10 01:45:43;;;;;;;1.37;0.75;;;20.60;98.10;;;;;;6630118;88;20343;-76
2022/08/10 01:55:45;;;;;;;1.20;0.70;;;20.30;99.10;;;;;;6635955;88;20254;-76
2022/08/10 02:05:51;;;;;;;1.95;0.90;;;20.00;99.90;;;;;;6624837;88;20227;-76
2022/08/10 02:15:54;;;;;;;1.27;0.80;;;20.00;99.90;;;;;;6622863;88;20690;-76
2022/08/10 02:25:57;;;;;;;1.40;0.85;;;20.00;99.90;;;;;;6624365;88;20184;-76
2022/08/10 02:36:00;;;;;;;2.25;1.20;;;19.70;99.90;;;;;;6623968;88;20743;-76
2022/08/10 02:46:08;;;;;;;1.70;0.90;;;19.60;99.90;;;;;;6634837;88;20201;-76
2022/08/10 02:56:42;;;;;;;1.60;0.82;;;19.60;99.90;;;;;;6626594;88;20532;-76
2022/08/10 03:06:48;;;;;;;1.52;0.93;;;19.40;99.90;;;;;;6645747;88;20205;-77
2022/08/10 03:16:50;;;;;;;1.50;0.77;;;19.30;99.90;;;;;;6634573;88;20245;-76
2022/08/10 03:26:53;;;;;;;1.98;0.98;;;19.20;99.90;;;;;;6623118;88;20186;-76
2022/08/10 03:36:53;;;;;;;1.60;0.90;;;19.10;99.90;;;;;;6628771;88;20259;-75
2022/08/10 03:46:58;;;;;;;1.73;0.88;;;19.00;99.90;;;;;;6629293;88;20219;-76
2022/08/10 03:56:59;;;;;;;1.40;0.90;;;18.80;99.90;;;;;;6626374;88;20683;-77
2022/08/10 04:07:01;;;;;;;1.65;1.05;;;18.80;99.90;;;;;;6638619;88;20209;-76
2022/08/10 04:17:01;;;;;;;2.72;0.88;;;18.50;99.90;;;;;;6637841;88;20393;-77
2022/08/10 04:27:02;;;;;;;1.43;0.83;;;18.30;99.90;;;;;;6624711;88;20197;-76
2022/08/10 04:37:05;;;;;;;1.77;1.00;;;18.20;99.90;;;;;;6640869;88;20209;-76
2022/08/10 04:47:05;;;;;;;2.00;1.15;;;18.00;99.90;;;;;;6630300;88;20259;-76
2022/08/10 04:57:06;;;;;;;1.47;0.90;;;17.90;99.90;;;;;;6642596;88;20214;-75
2022/08/10 05:07:08;;;;;;;1.33;0.83;;;17.90;99.90;;;;;;6626428;88;20984;-76
2022/08/10 05:17:09;;;;;;;2.20;1.10;;;17.80;99.90;;;;;;6628457;88;20647;-75
2022/08/10 05:27:09;;;;;;;2.00;1.00;;;18.00;99.90;;;;;;6645975;88;20312;-75
2022/08/10 05:37:11;;;;;;;1.65;1.00;;;18.10;99.90;;;;;;6649486;88;20215;-76
2022/08/10 05:47:11;;;;;;;2.47;1.00;;;18.40;99.90;;;;;;6631015;88;20584;-76
2022/08/10 05:57:15;;;;;;;2.25;1.40;;;18.60;99.90;;;;;;6623896;89;20412;-75
2022/08/10 06:07:18;;;;;;;1.87;0.98;;;18.80;99.90;;;;;;6635760;88;20217;-76
2022/08/10 06:17:19;;;;;;;1.40;0.95;;;19.60;99.90;;;;;;6650321;88;20177;-76
2022/08/10 06:27:19;;;;;;;1.95;1.25;;;20.20;99.90;;;;;;6629152;88;20333;-77
2022/08/10 06:37:28;;;;;;;1.75;1.00;;;20.70;99.90;;;;;;6644773;88;20316;-78
2022/08/10 06:47:36;;;;;;;2.17;1.20;;;21.30;99.90;;;;;;6658504;88;20188;-77
2022/08/10 06:57:37;;;;;;;2.47;1.10;;;21.80;99.90;;;;;;6641662;88;20240;-78
2022/08/10 07:07:41;;;;;;;1.60;1.05;;;22.70;99.90;;;;;;6687020;88;20263;-78
2022/08/10 07:17:44;;;;;;;1.60;0.98;;;23.40;99.90;;;;;;6649762;88;20305;-79
2022/08/10 07:27:45;;;;;;;1.53;1.00;;;24.10;98.00;;;;;;6678286;88;20196;-79
2022/08/10 07:37:48;;;;;;;1.42;1.00;;;24.40;97.00;;;;;;6639994;88;20204;-78
2022/08/10 07:47:55;;;;;;;;;;;25.00;95.90;;;;;;6635204;88;20756;-77
2022/08/10 07:57:57;;;;;;;1.50;1.02;;;25.80;94.10;;;;;;6634847;88;20060;-77
2022/08/10 08:07:59;;;;;;;;;;;26.40;90.70;;;;;;6640985;88;20182;-78
2022/08/10 08:18:01;;;;;;;1.70;1.08;;;26.20;90.50;;;;;;6643173;88;20209;-78
2022/08/10 08:28:03;;;;;;;1.30;0.90;;;26.80;90.00;;;;;;6641114;88;20292;-78
2022/08/10 08:38:05;;;;;;;1.60;1.07;;;27.90;89.40;;;;;;6641596;88;20695;-78
2022/08/10 08:48:35;;;;;;;1.30;0.77;;;28.90;85.70;;;;;;6656392;88;20262;-77
2022/08/10 08:58:53;;;;;;;1.87;1.05;;;29.70;82.60;;;;;;6648605;88;20214;-78
2022/08/10 09:09:29;;;;;;;2.83;1.20;;;30.70;79.30;;;;;;6643718;88;20350;-77
2022/08/10 09:19:45;;;;;;;1.40;1.05;;;31.80;76.70;;;;;;6664835;88;20205;-78
2022/08/10 09:29:53;;;;;;;1.60;1.10;;;32.70;74.00;;;;;;6658397;88;20211;-78
2022/08/10 09:40:16;;;;;;;2.08;1.33;;;32.90;73.30;;;;;;6665902;88;20215;-78
2022/08/10 09:50:38;;;;;;;1.65;1.00;;;34.30;70.30;;;;;;6673245;88;20655;-78
2022/08/10 10:00:51;;;;;;;1.20;0.98;;;34.50;67.60;;;;;;6642037;88;20782;-78
2022/08/10 10:11:19;;;;;;;1.48;1.00;;;34.70;67.50;;;;;;6639747;88;20227;-78
2022/08/10 10:21:30;;;;;;;1.50;1.08;;;35.10;66.20;;;;;;6645689;88;20239;-78
2022/08/10 10:31:30;;;;;;;;;;;34.50;63.20;;;;;;6637654;88;20699;-77
2022/08/10 10:41:47;;;;;;;1.52;0.90;;;34.60;62.70;;;;;;6656237;88;20082;-78
2022/08/10 10:52:03;;;;;;;1.45;0.98;;;34.60;61.70;;;;;;6639136;88;20714;-77
2022/08/10 11:02:28;;;;;;;1.30;1.05;;;34.40;61.40;;;;;;6648568;88;20718;-78
2022/08/10 11:13:07;;;;;;;1.00;0.90;;;36.70;60.10;;;;;;6653997;88;20202;-78
2022/08/10 11:23:51;;;;;;;1.48;0.93;;;38.20;58.80;;;;;;6651747;88;20217;-78
2022/08/10 11:34:01;;;;;;;1.55;1.00;;;38.50;56.80;;;;;;6654166;88;20227;-79
2022/08/10 11:44:16;;;;;;;1.50;1.20;;;35.80;56.70;;;;;;6654804;88;20188;-78
2022/08/10 11:54:36;;;;;;;1.40;0.90;;;37.10;55.80;;;;;;6661559;88;20329;-77
2022/08/10 12:04:40;;;;;;;1.42;1.02;;;37.80;54.40;;;;;;6650688;88;20185;-77
2022/08/10 12:14:58;;;;;;;1.20;0.80;;;37.70;53.60;;;;;;6650684;88;20215;-77
2022/08/10 12:25:02;;;;;;;1.00;0.80;;;37.70;54.10;;;;;;6638598;88;20186;-77
2022/08/10 12:35:32;;;;;;;1.35;0.90;;;36.30;53.70;;;;;;6634982;88;20328;-77
2022/08/10 12:45:54;;;;;;;1.20;0.90;;;37.40;53.70;;;;;;6646780;88;20188;-77
2022/08/10 12:55:56;;;;;;;1.20;0.88;;;37.80;51.60;;;;;;6658625;88;20735;-77
2022/08/10 13:06:03;;;;;;;1.92;0.80;;;36.40;53.00;;;;;;6652620;88;21671;-78
2022/08/10 13:16:04;;;;;;;1.10;0.90;;;38.00;52.80;;;;;;6641563;88;20197;-77
2022/08/10 13:26:07;;;;;;;1.23;0.90;;;37.20;51.90;;;;;;6642064;88;20207;-77
2022/08/10 13:36:08;;;;;;;1.00;0.75;;;37.30;52.20;;;;;;6642296;88;20747;-76
2022/08/10 13:46:14;;;;;;;1.50;1.00;;;36.50;51.60;;;;;;6639979;88;20200;-77
2022/08/10 13:56:15;;;;;;;1.20;0.90;;;37.20;51.80;;;;;;6636461;88;20264;-77
2022/08/10 14:06:18;;;;;;;1.10;0.80;;;37.50;51.60;;;;;;6638170;89;20236;-76
2022/08/10 14:16:21;;;;;;;1.40;0.90;;;37.60;51.40;;;;;;6651793;88;20242;-77
2022/08/10 14:26:27;;;;;;;1.08;0.75;;;36.90;51.60;;;;;;6639182;88;20197;-77
2022/08/10 14:36:51;;;;;;;1.10;0.80;;;37.90;50.80;;;;;;6663876;88;20231;-77
2022/08/10 14:46:56;;;;;;;1.20;0.77;;;36.90;50.60;;;;;;6655225;88;20779;-77
2022/08/10 14:57:03;;;;;;;1.40;0.90;;;37.30;50.60;;;;;;6642580;88;20197;-77
2022/08/10 15:07:10;;;;;;;1.20;0.90;;;35.10;51.60;;;;;;6650203;88;20271;-77
2022/08/10 15:17:22;;;;;;;1.20;0.90;;;35.10;52.70;;;;;;6660014;88;20278;-77
2022/08/10 15:27:24;;;;;;;1.40;0.98;;;35.70;51.60;;;;;;6640499;88;20659;-77
2022/08/10 15:37:26;;;;;;;1.40;0.90;;;35.00;52.50;;;;;;6639839;88;20316;-77
2022/08/10 15:47:37;;;;;;;1.50;1.00;;;35.40;52.70;;;;;;6660753;88;20197;-77
2022/08/10 15:57:46;;;;;;;1.40;0.90;;;36.00;52.50;;;;;;6649836;88;20327;-76
2022/08/10 16:07:57;;;;;;;1.20;0.90;;;35.90;52.30;;;;;;6670424;88;20200;-76
2022/08/10 16:18:06;;;;;;;1.33;0.82;;;36.10;52.00;;;;;;6644313;88;20777;-77
2022/08/10 16:28:08;;;;;;;1.05;0.77;;;35.90;51.90;;;;;;6638538;88;20680;-76
2022/08/10 16:38:10;;;;;;;2.15;1.30;;;34.70;52.40;;;;;;6644765;88;20222;-76
2022/08/10 16:48:13;;;;;;;1.40;0.95;;;34.90;52.40;;;;;;6642635;88;20248;-76
2022/08/10 16:58:17;;;;;;;1.40;0.93;;;34.80;52.40;;;;;;6640966;88;20229;-77
2022/08/10 17:08:19;;;;;;;1.48;1.02;;;33.80;53.30;;;;;;6649745;88;20192;-76
2022/08/10 17:18:29;;;;;;;2.10;0.98;;;33.50;53.30;;;;;;6637065;88;20208;-77
2022/08/10 17:28:29;;;;;;;1.30;0.80;;;33.50;53.80;;;;;;6631192;88;20652;-76
2022/08/10 17:38:32;;;;;;;1.30;0.97;;;34.00;53.20;;;;;;6645240;88;20256;-76
2022/08/10 17:48:34;;;;;;;1.60;1.10;;;34.70;53.20;;;;;;6638407;88;20178;-75
2022/08/10 17:58:38;;;;;;;1.30;0.80;;;33.00;56.70;;;;;;6649303;88;20181;-75
2022/08/10 18:09:00;;;;;;;1.85;0.88;;;29.90;58.50;;;;;;6656382;88;20185;-76
2022/08/10 18:19:09;;;;;;;1.87;0.87;;;29.30;59.40;;;;;;6645314;88;20673;-77
2022/08/10 18:29:14;;;;;;;1.42;0.88;;;29.20;60.70;;;;;;6680709;88;20221;-76
2022/08/10 18:39:20;;;;;;;1.60;0.90;;;29.00;59.90;;;;;;6654593;88;20230;-76
2022/08/10 18:49:36;;;;;;;1.42;0.80;;;28.60;62.60;;;;;;6636810;88;21091;-76
2022/08/10 18:59:40;;;;;;;1.77;0.95;;;28.70;60.40;;;;;;6636975;88;20673;-78
2022/08/10 19:09:47;;;;;;;1.20;0.70;;;28.70;59.60;;;;;;6661299;88;20210;-77
2022/08/10 19:20:12;;;;;;;1.58;0.80;;;28.20;61.90;;;;;;6649418;88;20727;-78
2022/08/10 19:30:16;;;;;;;1.20;0.70;;;28.20;59.80;;;;;;6643715;88;20218;-80
2022/08/10 19:40:29;;;;;;;1.95;0.80;;;28.00;61.80;;;;;;6649326;88;20181;-79
2022/08/10 19:50:38;;;;;;;;;;;27.40;63.30;;;;;;6656836;88;20936;-80
2022/08/10 20:01:05;;;;;;;1.40;0.80;;;27.00;62.50;;;;;;6670889;88;20169;-76
2022/08/10 20:11:11;;;;;;;1.60;0.70;;;26.80;63.30;;;;;;6648539;88;20669;-76
2022/08/10 20:21:28;;;;;;;1.92;0.90;;;26.60;63.90;;;;;;6662544;88;20342;-77
2022/08/10 20:31:52;;;;;;;1.42;0.85;;;26.40;64.60;;;;;;6666568;88;20335;-77
2022/08/10 20:42:05;;;;;;;1.20;0.80;;;26.20;63.60;;;;;;6650974;88;20185;-76
2022/08/10 20:52:06;;;;;;;1.45;0.93;;;25.80;64.80;;;;;;6644800;88;20220;-76
2022/08/10 21:02:26;;;;;;;1.50;0.80;;;25.70;64.30;;;;;;6638005;88;20758;-76
2022/08/10 21:12:56;;;;;;;1.62;0.80;;;25.40;65.30;;;;;;6637972;88;20210;-75
2022/08/10 21:22:59;;;;;;;1.37;0.80;;;25.00;65.70;;;;;;6624571;88;20689;-76
2022/08/10 23:07:34;;;;;;;1.20;0.75;;;24.50;64.30;;;;;;6700522;88;20225;-76
2022/08/10 23:27:58;;;;;;;1.92;0.80;;;24.30;65.20;;;;;;6612805;89;20177;-78
2022/08/10 23:38:02;;;;;;;1.52;0.93;;;24.40;64.50;;;;;;6612384;89;20217;-77
2022/08/10 23:48:03;;;;;;;1.33;0.70;;;24.40;64.30;;;;;;6611204;89;21089;-75
2022/08/10 23:58:06;;;;;;;1.87;0.80;;;24.00;67.20;;;;;;6613383;89;20210;-75
